ADDS METAR Data INFO
IDs: Format: Raw Decoded Include TAF

Data at: 0029 UTC 15 Dec 2017

KCXP 150015Z AUTO 11007KT 10SM CLR 05/M09 A3036 RMK AO2
KCXP 142355Z AUTO 08007KT 10SM CLR 05/M09 A3036 RMK AO2
KCXP 142335Z AUTO 08010KT 10SM CLR 07/M09 A3036 RMK AO2
KCXP 142315Z AUTO 08009KT 10SM CLR 07/M09 A3036 RMK AO2
KCXP 142255Z AUTO 08010KT 10SM CLR 07/M08 A3037 RMK AO2
KCXP 142235Z AUTO 08012KT 10SM CLR 07/M08 A3037 RMK AO2
KCXP 142215Z AUTO 08014KT 10SM CLR 07/M08 A3037 RMK AO2
KCXP 142155Z AUTO 08012KT 10SM CLR 07/M08 A3037 RMK AO2
KCXP 142135Z AUTO 09013KT 10SM CLR 07/M08 A3038 RMK AO2
KCXP 142115Z AUTO 09013G17KT 10SM CLR 07/M08 A3039 RMK AO2
KCXP 142055Z AUTO 08011KT 10SM CLR 06/M08 A3039 RMK AO2
KCXP 142035Z AUTO 08012KT 10SM CLR 06/M08 A3040 RMK AO2
KCXP 142015Z AUTO 08011KT 10SM CLR 05/M08 A3041 RMK AO2
KCXP 141955Z AUTO 08013KT 10SM CLR 05/M08 A3042 RMK AO2
KCXP 141935Z AUTO 08012KT 10SM CLR 04/M08 A3042 RMK AO2
KCXP 141915Z AUTO 08009KT 10SM CLR 04/M08 A3043 RMK AO2
KCXP 141855Z AUTO 00000KT 10SM CLR 02/M09 A3044 RMK AO2
KCXP 141835Z AUTO 00000KT 10SM CLR 00/M09 A3045 RMK AO2
KCXP 141815Z AUTO 00000KT 10SM CLR 00/M09 A3045 RMK AO2
KCXP 141755Z AUTO 00000KT 10SM CLR M01/M09 A3046 RMK AO2
KCXP 141735Z AUTO 00000KT 10SM CLR M02/M09 A3046 RMK AO2
KCXP 141715Z AUTO 00000KT 10SM CLR M03/M09 A3046 RMK AO2
KCXP 141655Z AUTO 32003KT 9SM CLR M04/M09 A3046 RMK AO2
KCXP 141635Z AUTO 00000KT 9SM CLR M05/M09 A3045 RMK AO2
KCXP 141615Z AUTO 00000KT 7SM CLR M07/M10 A3045 RMK AO2
KCXP 141555Z AUTO 00000KT 8SM CLR M07/M10 A3045 RMK AO2
KCXP 141535Z AUTO 00000KT 10SM CLR M09/M11 A3044 RMK AO2
KCXP 141515Z AUTO 00000KT 9SM CLR M09/M11 A3044 RMK AO2
KCXP 141455Z AUTO 00000KT 10SM CLR M09/M11 A3044 RMK AO2
KCXP 141435Z AUTO 00000KT 10SM CLR M09/M12 A3044 RMK AO2
KCXP 141415Z AUTO 00000KT 10SM FEW035 M09/M12 A3043 RMK AO2
KCXP 141355Z AUTO 00000KT 10SM SCT035 M09/M11 A3042 RMK AO2
KCXP 141335Z AUTO 00000KT 10SM BKN035 M08/M10 A3042 RMK AO2
KCXP 141315Z AUTO 00000KT 10SM SCT035 M09/M11 A3041 RMK AO2
KCXP 141255Z AUTO 00000KT 10SM FEW037 M08/M10 A3042 RMK AO2
KCXP 141235Z AUTO 00000KT 10SM FEW037 M09/M11 A3042 RMK AO2
KCXP 141215Z AUTO 00000KT 10SM CLR M09/M11 A3042 RMK AO2
KCXP 141155Z AUTO 00000KT 10SM FEW035 M08/M10 A3041 RMK AO2
KCXP 141135Z AUTO 00000KT 10SM SCT035 M08/M10 A3041 RMK AO2
KCXP 141115Z AUTO 00000KT 10SM CLR M08/M10 A3042 RMK AO2
KCXP 141055Z AUTO 00000KT 10SM CLR M08/M10 A3042 RMK AO2
KCXP 141035Z AUTO 00000KT 10SM CLR M08/M10 A3041 RMK AO2
KCXP 141015Z AUTO 00000KT 10SM CLR M07/M10 A3041 RMK AO2
KCXP 140955Z AUTO 00000KT 10SM CLR M08/M10 A3041 RMK AO2
KCXP 140935Z AUTO 00000KT 10SM CLR M07/M10 A3041 RMK AO2
KCXP 140915Z AUTO 00000KT 10SM CLR M07/M10 A3040 RMK AO2
KCXP 140855Z AUTO 00000KT 10SM CLR M07/M10 A3040 RMK AO2
KCXP 140835Z AUTO 00000KT 10SM CLR M07/M09 A3040 RMK AO2
KCXP 140815Z AUTO 31003KT 10SM CLR M05/M09 A3040 RMK AO2
KCXP 140755Z AUTO 00000KT 10SM CLR M07/M10 A3040 RMK AO2
KCXP 140735Z AUTO 00000KT 10SM CLR M06/M09 A3040 RMK AO2
KCXP 140715Z AUTO 00000KT 10SM CLR M05/M09 A3040 RMK AO2
KCXP 140655Z AUTO 00000KT 10SM CLR M05/M09 A3039 RMK AO2
KCXP 140635Z AUTO 00000KT 10SM CLR M04/M09 A3039 RMK AO2
KCXP 140615Z AUTO 00000KT 10SM CLR M05/M09 A3038 RMK AO2
KCXP 140555Z AUTO 00000KT 10SM FEW038 M04/M09 A3038 RMK AO2
KCXP 140535Z AUTO 00000KT 10SM SCT040 M04/M09 A3037 RMK AO2
KCXP 140515Z AUTO 00000KT 10SM FEW040 M04/M08 A3036 RMK AO2
KCXP 140455Z AUTO 00000KT 10SM FEW038 M03/M08 A3036 RMK AO2
KCXP 140435Z AUTO 00000KT 10SM SCT034 M03/M08 A3035 RMK AO2
KCXP 140415Z AUTO 00000KT 10SM SCT034 BKN044 M03/M09 A3034 RMK AO2
KCXP 140355Z AUTO 00000KT 10SM BKN042 M03/M08 A3034 RMK AO2
KCXP 140335Z AUTO 00000KT 10SM FEW042 M01/M08 A3033 RMK AO2
KCXP 140315Z AUTO 00000KT 10SM CLR M02/M08 A3032 RMK AO2
KCXP 140255Z AUTO 00000KT 10SM CLR 00/M08 A3031 RMK AO2
KCXP 140235Z AUTO 00000KT 10SM CLR 01/M09 A3030 RMK AO2
KCXP 140215Z AUTO 08003KT 10SM CLR 00/M08 A3030 RMK AO2
KCXP 140155Z AUTO 05007KT 10SM CLR 02/M09 A3030 RMK AO2
KCXP 140135Z AUTO 07011G16KT 10SM FEW046 03/M09 A3030 RMK AO2
KCXP 140115Z AUTO 07013G17KT 10SM SCT046 03/M09 A3029 RMK AO2
KCXP 140055Z AUTO 06010KT 10SM CLR 03/M09 A3028 RMK AO2
KCXP 140035Z AUTO 00000KT 10SM CLR 06/M09 A3027 RMK AO2
KCXP 140015Z AUTO 00000KT 10SM CLR 07/M10 A3026 RMK AO2
KCXP 132355Z AUTO 00000KT 10SM CLR 08/M10 A3026 RMK AO2
KCXP 132335Z AUTO 00000KT 10SM CLR 08/M11 A3025 RMK AO2
KCXP 132315Z AUTO 00000KT 10SM CLR 08/M11 A3025 RMK AO2
KCXP 132255Z AUTO 25003KT 10SM CLR 08/M12 A3026 RMK AO2
KCXP 132235Z AUTO 00000KT 10SM CLR 08/M12 A3026 RMK AO2
KCXP 132215Z AUTO 00000KT 10SM CLR 09/M10 A3026 RMK AO2
KCXP 132155Z AUTO 00000KT 10SM CLR 08/M09 A3027 RMK AO2
KCXP 132135Z AUTO 00000KT 10SM CLR 07/M09 A3028 RMK AO2
KCXP 132115Z AUTO 00000KT 10SM CLR 06/M09 A3029 RMK AO2
KCXP 132055Z AUTO 00000KT 10SM CLR 06/M10 A3030 RMK AO2
KCXP 132035Z AUTO 11003KT 10SM CLR 05/M10 A3032 RMK AO2
KCXP 132015Z AUTO 11003KT 10SM CLR 04/M09 A3033 RMK AO2
KCXP 131955Z AUTO 00000KT 10SM CLR 04/M09 A3034 RMK AO2
KCXP 131935Z AUTO 07003KT 10SM CLR 03/M09 A3035 RMK AO2
KCXP 131915Z AUTO 00000KT 10SM CLR 02/M09 A3036 RMK AO2
KCXP 131855Z AUTO 00000KT 10SM CLR 00/M10 A3037 RMK AO2
KCXP 131835Z AUTO 00000KT 10SM CLR 00/M09 A3038 RMK AO2
KCXP 131815Z AUTO 00000KT 10SM CLR M01/M09 A3039 RMK AO2
KCXP 131755Z AUTO 13003KT 10SM CLR M02/M09 A3040 RMK AO2
KCXP 131735Z AUTO 00000KT 10SM CLR M03/M09 A3040 RMK AO2
KCXP 131715Z AUTO 00000KT 10SM CLR M04/M09 A3040 RMK AO2
KCXP 131655Z AUTO 00000KT 10SM CLR M05/M10 A3040 RMK AO2
KCXP 131635Z AUTO 00000KT 10SM CLR M07/M11 A3040 RMK AO2
KCXP 131615Z AUTO 00000KT 10SM CLR M08/M12 A3040 RMK AO2
KCXP 131555Z AUTO 00000KT 10SM CLR M09/M12 A3039 RMK AO2
KCXP 131535Z AUTO 00000KT 10SM CLR M12/M14 A3039 RMK AO2
KCXP 131515Z AUTO 00000KT 10SM CLR M11/M13 A3039 RMK AO2
KCXP 131455Z AUTO 00000KT 10SM CLR M10/M13 A3039 RMK AO2
KCXP 131435Z AUTO 29003KT 10SM CLR M09/M12 A3039 RMK AO2
KCXP 131415Z AUTO 32004KT 10SM CLR M10/M12 A3039 RMK AO2
KCXP 131355Z AUTO 00000KT 10SM CLR M11/M13 A3039 RMK AO2
KCXP 131335Z AUTO 00000KT 10SM CLR M11/M13 A3039 RMK AO2
KCXP 131315Z AUTO 00000KT 10SM CLR M10/M13 A3039 RMK AO2
KCXP 131255Z AUTO 00000KT 10SM CLR M11/M13 A3039 RMK AO2
KCXP 131235Z AUTO 00000KT 10SM CLR M10/M13 A3039 RMK AO2